sensor_id;sensor_type;location;lat;lon;timestamp;temperature;humidity
1702;DHT22;848;48.354;10.064;2023-06-22T00:01:17;19.70;99.90
1702;DHT22;848;48.354;10.064;2023-06-22T00:03:44;19.70;99.90
1702;DHT22;848;48.354;10.064;2023-06-22T00:06:11;19.60;99.90
1702;DHT22;848;48.354;10.064;2023-06-22T00:08:39;19.60;99.90
1702;DHT22;848;48.354;10.064;2023-06-22T00:11:06;19.60;99.90
1702;DHT22;848;48.354;10.064;2023-06-22T00:13:33;19.50;99.90
1702;DHT22;848;48.354;10.064;2023-06-22T00:16:00;19.50;99.90
1702;DHT22;848;48.354;10.064;2023-06-22T00:18:27;19.40;99.90
1702;DHT22;848;48.354;10.064;2023-06-22T00:20:56;19.40;99.90
1702;DHT22;848;48.354;10.064;2023-06-22T00:23:24;19.40;99.90
1702;DHT22;848;48.354;10.064;2023-06-22T00:25:52;19.30;99.90
1702;DHT22;848;48.354;10.064;2023-06-22T00:28:19;19.30;99.90
1702;DHT22;848;48.354;10.064;2023-06-22T00:30:47;19.30;99.90
1702;DHT22;848;48.354;10.064;2023-06-22T00:33:14;19.30;99.90
1702;DHT22;848;48.354;10.064;2023-06-22T00:35:41;19.30;99.90
1702;DHT22;848;48.354;10.064;2023-06-22T00:38:08;19.20;99.90
1702;DHT22;848;48.354;10.064;2023-06-22T00:40:35;19.20;99.90
1702;DHT22;848;48.354;10.064;2023-06-22T00:43:04;19.10;99.90
1702;DHT22;848;48.354;10.064;2023-06-22T00:45:31;19.00;99.90
1702;DHT22;848;48.354;10.064;2023-06-22T00:47:59;19.00;99.90
1702;DHT22;848;48.354;10.064;2023-06-22T00:50:27;19.00;99.90
1702;DHT22;848;48.354;10.064;2023-06-22T00:53:00;19.00;99.90
1702;DHT22;848;48.354;10.064;2023-06-22T00:55:29;18.90;99.90
1702;DHT22;848;48.354;10.064;2023-06-22T00:57:55;19.00;99.90
1702;DHT22;848;48.354;10.064;2023-06-22T01:00:24;19.00;99.90
1702;DHT22;848;48.354;10.064;2023-06-22T01:02:52;19.00;99.90
1702;DHT22;848;48.354;10.064;2023-06-22T01:05:20;19.10;99.90
1702;DHT22;848;48.354;10.064;2023-06-22T01:08:05;19.10;99.90
1702;DHT22;848;48.354;10.064;2023-06-22T01:10:40;19.00;99.90
1702;DHT22;848;48.354;10.064;2023-06-22T01:13:13;19.00;99.90
1702;DHT22;848;48.354;10.064;2023-06-22T01:15:46;19.00;99.90
1702;DHT22;848;48.354;10.064;2023-06-22T01:18:15;19.00;99.90
1702;DHT22;848;48.354;10.064;2023-06-22T01:20:44;19.10;99.90
1702;DHT22;848;48.354;10.064;2023-06-22T01:23:19;19.10;99.90
1702;DHT22;848;48.354;10.064;2023-06-22T01:25:53;19.10;99.90
1702;DHT22;848;48.354;10.064;2023-06-22T01:31:14;19.00;99.90
1702;DHT22;848;48.354;10.064;2023-06-22T01:33:44;19.00;99.90
1702;DHT22;848;48.354;10.064;2023-06-22T01:36:12;19.00;99.90
1702;DHT22;848;48.354;10.064;2023-06-22T01:38:40;19.00;99.90
1702;DHT22;848;48.354;10.064;2023-06-22T01:41:07;19.10;99.90
1702;DHT22;848;48.354;10.064;2023-06-22T01:43:36;19.10;99.90
1702;DHT22;848;48.354;10.064;2023-06-22T01:46:03;19.00;99.90
1702;DHT22;848;48.354;10.064;2023-06-22T01:48:31;19.00;99.90
1702;DHT22;848;48.354;10.064;2023-06-22T01:50:58;19.00;99.90
1702;DHT22;848;48.354;10.064;2023-06-22T01:53:25;19.00;99.90
1702;DHT22;848;48.354;10.064;2023-06-22T01:55:52;19.00;99.90
1702;DHT22;848;48.354;10.064;2023-06-22T01:58:20;18.90;99.90
1702;DHT22;848;48.354;10.064;2023-06-22T02:00:53;18.90;99.90
1702;DHT22;848;48.354;10.064;2023-06-22T02:03:25;18.90;99.90
1702;DHT22;848;48.354;10.064;2023-06-22T02:06:01;18.90;99.90
1702;DHT22;848;48.354;10.064;2023-06-22T02:08:33;18.90;99.90
1702;DHT22;848;48.354;10.064;2023-06-22T02:11:02;18.90;99.90
1702;DHT22;848;48.354;10.064;2023-06-22T02:13:31;18.90;99.90
1702;DHT22;848;48.354;10.064;2023-06-22T02:16:00;18.90;99.90
1702;DHT22;848;48.354;10.064;2023-06-22T02:18:27;18.90;99.90
1702;DHT22;848;48.354;10.064;2023-06-22T02:20:54;19.00;99.90
1702;DHT22;848;48.354;10.064;2023-06-22T02:23:21;18.90;99.90
1702;DHT22;848;48.354;10.064;2023-06-22T02:25:48;18.90;99.90
1702;DHT22;848;48.354;10.064;2023-06-22T02:28:15;18.90;99.90
1702;DHT22;848;48.354;10.064;2023-06-22T02:30:42;18.90;99.90
1702;DHT22;848;48.354;10.064;2023-06-22T02:33:10;18.90;99.90
1702;DHT22;848;48.354;10.064;2023-06-22T02:35:37;18.80;99.90
1702;DHT22;848;48.354;10.064;2023-06-22T02:38:05;18.80;99.90
1702;DHT22;848;48.354;10.064;2023-06-22T02:40:32;18.80;99.90
1702;DHT22;848;48.354;10.064;2023-06-22T02:42:59;18.80;99.90
1702;DHT22;848;48.354;10.064;2023-06-22T02:45:27;18.70;99.90
1702;DHT22;848;48.354;10.064;2023-06-22T02:47:55;18.70;99.90
1702;DHT22;848;48.354;10.064;2023-06-22T02:50:23;18.70;99.90
1702;DHT22;848;48.354;10.064;2023-06-22T02:52:50;18.70;99.90
1702;DHT22;848;48.354;10.064;2023-06-22T02:55:17;18.70;99.90
1702;DHT22;848;48.354;10.064;2023-06-22T02:57:44;18.70;99.90
1702;DHT22;848;48.354;10.064;2023-06-22T03:00:14;18.70;99.90
1702;DHT22;848;48.354;10.064;2023-06-22T03:02:43;18.70;99.90
1702;DHT22;848;48.354;10.064;2023-06-22T03:05:11;18.70;99.90
1702;DHT22;848;48.354;10.064;2023-06-22T03:07:40;18.70;99.90
1702;DHT22;848;48.354;10.064;2023-06-22T03:10:08;18.70;99.90
1702;DHT22;848;48.354;10.064;2023-06-22T03:12:36;18.70;99.90
1702;DHT22;848;48.354;10.064;2023-06-22T03:15:04;18.70;99.90
1702;DHT22;848;48.354;10.064;2023-06-22T03:17:31;18.70;99.90
1702;DHT22;848;48.354;10.064;2023-06-22T03:19:58;18.60;99.90
1702;DHT22;848;48.354;10.064;2023-06-22T03:22:25;18.60;99.90
1702;DHT22;848;48.354;10.064;2023-06-22T03:24:53;18.60;99.90
1702;DHT22;848;48.354;10.064;2023-06-22T03:27:20;18.50;99.90
1702;DHT22;848;48.354;10.064;2023-06-22T03:29:47;18.50;99.90
1702;DHT22;848;48.354;10.064;2023-06-22T03:32:13;18.50;99.90
1702;DHT22;848;48.354;10.064;2023-06-22T03:34:40;18.50;99.90
1702;DHT22;848;48.354;10.064;2023-06-22T03:37:13;18.50;99.90
1702;DHT22;848;48.354;10.064;2023-06-22T03:39:40;18.50;99.90
1702;DHT22;848;48.354;10.064;2023-06-22T03:42:08;18.60;99.90
1702;DHT22;848;48.354;10.064;2023-06-22T03:44:35;18.60;99.90
1702;DHT22;848;48.354;10.064;2023-06-22T03:47:03;18.60;99.90
1702;DHT22;848;48.354;10.064;2023-06-22T03:49:32;18.50;99.90
1702;DHT22;848;48.354;10.064;2023-06-22T03:51:59;18.50;99.90
1702;DHT22;848;48.354;10.064;2023-06-22T03:54:26;18.50;99.90
1702;DHT22;848;48.354;10.064;2023-06-22T03:56:53;18.50;99.90
1702;DHT22;848;48.354;10.064;2023-06-22T03:59:21;18.50;99.90
1702;DHT22;848;48.354;10.064;2023-06-22T04:01:48;18.50;99.90
1702;DHT22;848;48.354;10.064;2023-06-22T04:04:16;18.50;99.90
1702;DHT22;848;48.354;10.064;2023-06-22T04:06:43;18.50;99.90
1702;DHT22;848;48.354;10.064;2023-06-22T04:09:10;18.60;99.90
1702;DHT22;848;48.354;10.064;2023-06-22T04:11:37;18.60;99.90
1702;DHT22;848;48.354;10.064;2023-06-22T04:14:04;18.60;99.90
1702;DHT22;848;48.354;10.064;2023-06-22T04:16:32;18.50;99.90
1702;DHT22;848;48.354;10.064;2023-06-22T04:18:59;18.50;99.90
1702;DHT22;848;48.354;10.064;2023-06-22T04:21:26;18.60;99.90
1702;DHT22;848;48.354;10.064;2023-06-22T04:23:53;18.60;99.90
1702;DHT22;848;48.354;10.064;2023-06-22T04:26:20;18.60;99.90
1702;DHT22;848;48.354;10.064;2023-06-22T04:28:47;18.60;99.90
1702;DHT22;848;48.354;10.064;2023-06-22T04:31:17;18.60;99.90
1702;DHT22;848;48.354;10.064;2023-06-22T04:33:45;18.60;99.90
1702;DHT22;848;48.354;10.064;2023-06-22T04:36:12;18.60;99.90
1702;DHT22;848;48.354;10.064;2023-06-22T04:38:40;18.70;99.90
1702;DHT22;848;48.354;10.064;2023-06-22T04:41:07;18.70;99.90
1702;DHT22;848;48.354;10.064;2023-06-22T04:43:39;18.80;99.90
1702;DHT22;848;48.354;10.064;2023-06-22T04:46:07;18.80;99.90
1702;DHT22;848;48.354;10.064;2023-06-22T04:48:34;18.80;99.90
1702;DHT22;848;48.354;10.064;2023-06-22T04:51:02;18.90;99.90
1702;DHT22;848;48.354;10.064;2023-06-22T04:53:30;18.90;99.90
1702;DHT22;848;48.354;10.064;2023-06-22T04:55:57;18.90;99.90
1702;DHT22;848;48.354;10.064;2023-06-22T04:58:24;19.00;99.90
1702;DHT22;848;48.354;10.064;2023-06-22T05:00:52;19.00;99.90
1702;DHT22;848;48.354;10.064;2023-06-22T05:03:22;19.00;99.90
1702;DHT22;848;48.354;10.064;2023-06-22T05:05:51;19.10;99.90
1702;DHT22;848;48.354;10.064;2023-06-22T05:08:20;19.10;99.90
1702;DHT22;848;48.354;10.064;2023-06-22T05:10:55;19.20;99.90
1702;DHT22;848;48.354;10.064;2023-06-22T05:13:21;19.20;99.90
1702;DHT22;848;48.354;10.064;2023-06-22T05:15:52;19.30;99.90
1702;DHT22;848;48.354;10.064;2023-06-22T05:18:27;19.40;99.90
1702;DHT22;848;48.354;10.064;2023-06-22T05:20:54;19.40;99.90
1702;DHT22;848;48.354;10.064;2023-06-22T05:23:23;19.40;99.90
1702;DHT22;848;48.354;10.064;2023-06-22T05:25:50;19.50;99.90
1702;DHT22;848;48.354;10.064;2023-06-22T05:28:17;19.60;99.90
1702;DHT22;848;48.354;10.064;2023-06-22T05:30:48;19.60;99.90
1702;DHT22;848;48.354;10.064;2023-06-22T05:33:15;19.60;99.90
1702;DHT22;848;48.354;10.064;2023-06-22T05:35:42;19.60;99.90
1702;DHT22;848;48.354;10.064;2023-06-22T05:38:09;19.70;99.90
1702;DHT22;848;48.354;10.064;2023-06-22T05:40:37;19.80;99.90
1702;DHT22;848;48.354;10.064;2023-06-22T05:43:04;20.00;99.90
1702;DHT22;848;48.354;10.064;2023-06-22T05:45:31;20.10;99.90
1702;DHT22;848;48.354;10.064;2023-06-22T05:47:58;20.10;99.90
1702;DHT22;848;48.354;10.064;2023-06-22T05:50:24;20.20;99.90
1702;DHT22;848;48.354;10.064;2023-06-22T05:52:51;20.30;99.90
1702;DHT22;848;48.354;10.064;2023-06-22T05:55:18;20.50;99.90
1702;DHT22;848;48.354;10.064;2023-06-22T05:57:46;20.50;99.90
1702;DHT22;848;48.354;10.064;2023-06-22T06:00:14;20.50;99.90
1702;DHT22;848;48.354;10.064;2023-06-22T06:02:41;20.70;99.90
1702;DHT22;848;48.354;10.064;2023-06-22T06:05:10;20.80;99.90
1702;DHT22;848;48.354;10.064;2023-06-22T06:07:36;21.00;99.90
1702;DHT22;848;48.354;10.064;2023-06-22T06:10:04;21.10;99.90
1702;DHT22;848;48.354;10.064;2023-06-22T06:12:31;21.10;99.90
1702;DHT22;848;48.354;10.064;2023-06-22T06:15:00;21.10;99.90
1702;DHT22;848;48.354;10.064;2023-06-22T06:17:27;21.20;99.90
1702;DHT22;848;48.354;10.064;2023-06-22T06:19:53;21.10;99.90
1702;DHT22;848;48.354;10.064;2023-06-22T06:22:20;21.10;99.90
1702;DHT22;848;48.354;10.064;2023-06-22T06:24:49;21.10;99.90
1702;DHT22;848;48.354;10.064;2023-06-22T06:27:16;21.10;99.90
1702;DHT22;848;48.354;10.064;2023-06-22T06:29:44;21.30;99.90
1702;DHT22;848;48.354;10.064;2023-06-22T06:32:15;21.30;99.90
1702;DHT22;848;48.354;10.064;2023-06-22T06:34:42;21.50;99.90
1702;DHT22;848;48.354;10.064;2023-06-22T06:37:09;21.50;99.90
1702;DHT22;848;48.354;10.064;2023-06-22T06:39:36;21.60;99.90
1702;DHT22;848;48.354;10.064;2023-06-22T06:42:07;21.70;99.90
1702;DHT22;848;48.354;10.064;2023-06-22T06:44:34;21.80;99.90
1702;DHT22;848;48.354;10.064;2023-06-22T06:47:03;22.00;99.90
1702;DHT22;848;48.354;10.064;2023-06-22T06:49:33;22.20;99.90
1702;DHT22;848;48.354;10.064;2023-06-22T06:52:00;22.20;99.90
1702;DHT22;848;48.354;10.064;2023-06-22T06:54:26;22.10;99.90
1702;DHT22;848;48.354;10.064;2023-06-22T06:56:53;22.20;99.90
1702;DHT22;848;48.354;10.064;2023-06-22T06:59:20;22.20;99.90
1702;DHT22;848;48.354;10.064;2023-06-22T07:01:47;22.30;99.90
1702;DHT22;848;48.354;10.064;2023-06-22T07:04:14;22.50;99.90
1702;DHT22;848;48.354;10.064;2023-06-22T07:06:42;22.50;99.90
1702;DHT22;848;48.354;10.064;2023-06-22T07:09:09;22.50;99.90
1702;DHT22;848;48.354;10.064;2023-06-22T07:11:36;22.60;99.90
1702;DHT22;848;48.354;10.064;2023-06-22T07:14:03;22.70;99.90
1702;DHT22;848;48.354;10.064;2023-06-22T07:16:30;22.70;99.90
1702;DHT22;848;48.354;10.064;2023-06-22T07:18:58;22.80;99.90
1702;DHT22;848;48.354;10.064;2023-06-22T07:21:25;22.80;99.90
1702;DHT22;848;48.354;10.064;2023-06-22T07:23:54;22.90;99.90
1702;DHT22;848;48.354;10.064;2023-06-22T07:26:22;22.90;99.90
1702;DHT22;848;48.354;10.064;2023-06-22T07:28:48;22.90;99.90
1702;DHT22;848;48.354;10.064;2023-06-22T07:31:16;22.90;99.90
1702;DHT22;848;48.354;10.064;2023-06-22T07:33:43;23.00;99.90
1702;DHT22;848;48.354;10.064;2023-06-22T07:36:10;23.10;99.90
1702;DHT22;848;48.354;10.064;2023-06-22T07:38:37;23.20;99.90
1702;DHT22;848;48.354;10.064;2023-06-22T07:41:05;23.40;99.90
1702;DHT22;848;48.354;10.064;2023-06-22T07:43:32;23.50;99.90
1702;DHT22;848;48.354;10.064;2023-06-22T07:45:59;23.60;99.90
1702;DHT22;848;48.354;10.064;2023-06-22T07:48:26;23.70;99.90
1702;DHT22;848;48.354;10.064;2023-06-22T07:50:53;23.70;99.90
1702;DHT22;848;48.354;10.064;2023-06-22T07:53:20;23.80;99.90
1702;DHT22;848;48.354;10.064;2023-06-22T07:55:47;23.80;99.90
1702;DHT22;848;48.354;10.064;2023-06-22T07:58:15;23.80;99.90
1702;DHT22;848;48.354;10.064;2023-06-22T08:00:44;23.80;99.90
1702;DHT22;848;48.354;10.064;2023-06-22T08:03:11;23.90;99.90
1702;DHT22;848;48.354;10.064;2023-06-22T08:05:38;23.90;99.90
1702;DHT22;848;48.354;10.064;2023-06-22T08:08:05;24.00;99.90
1702;DHT22;848;48.354;10.064;2023-06-22T08:10:32;24.10;99.90
1702;DHT22;848;48.354;10.064;2023-06-22T08:12:59;24.20;99.90
1702;DHT22;848;48.354;10.064;2023-06-22T08:15:28;24.20;99.90
1702;DHT22;848;48.354;10.064;2023-06-22T08:17:55;24.20;99.90
1702;DHT22;848;48.354;10.064;2023-06-22T08:20:23;24.30;99.90
1702;DHT22;848;48.354;10.064;2023-06-22T08:22:50;24.30;99.90
1702;DHT22;848;48.354;10.064;2023-06-22T08:25:17;24.50;99.90
1702;DHT22;848;48.354;10.064;2023-06-22T08:27:45;24.50;99.90
1702;DHT22;848;48.354;10.064;2023-06-22T08:30:14;24.60;99.90
1702;DHT22;848;48.354;10.064;2023-06-22T08:32:42;24.70;99.90
1702;DHT22;848;48.354;10.064;2023-06-22T08:35:10;24.70;99.90
1702;DHT22;848;48.354;10.064;2023-06-22T08:37:37;24.80;99.90
1702;DHT22;848;48.354;10.064;2023-06-22T08:40:06;25.00;99.90
1702;DHT22;848;48.354;10.064;2023-06-22T08:42:34;25.40;99.90
1702;DHT22;848;48.354;10.064;2023-06-22T08:45:01;25.70;99.90
1702;DHT22;848;48.354;10.064;2023-06-22T08:47:29;25.90;99.90
1702;DHT22;848;48.354;10.064;2023-06-22T08:49:57;26.00;99.90
1702;DHT22;848;48.354;10.064;2023-06-22T08:52:24;26.30;99.90
1702;DHT22;848;48.354;10.064;2023-06-22T08:54:51;26.70;99.90
1702;DHT22;848;48.354;10.064;2023-06-22T08:57:18;27.10;99.90
1702;DHT22;848;48.354;10.064;2023-06-22T08:59:46;27.30;99.90
1702;DHT22;848;48.354;10.064;2023-06-22T09:02:12;27.30;99.90
1702;DHT22;848;48.354;10.064;2023-06-22T09:04:39;27.40;99.90
1702;DHT22;848;48.354;10.064;2023-06-22T09:07:08;27.50;99.90
1702;DHT22;848;48.354;10.064;2023-06-22T09:09:35;27.80;99.90
1702;DHT22;848;48.354;10.064;2023-06-22T09:12:02;27.60;99.90
1702;DHT22;848;48.354;10.064;2023-06-22T09:14:29;27.60;99.90
1702;DHT22;848;48.354;10.064;2023-06-22T09:16:56;27.80;99.90
1702;DHT22;848;48.354;10.064;2023-06-22T09:19:23;27.80;99.90
1702;DHT22;848;48.354;10.064;2023-06-22T09:21:50;27.90;99.90
1702;DHT22;848;48.354;10.064;2023-06-22T09:24:19;27.80;99.90
1702;DHT22;848;48.354;10.064;2023-06-22T09:26:46;27.60;99.90
1702;DHT22;848;48.354;10.064;2023-06-22T09:29:13;27.60;99.90
1702;DHT22;848;48.354;10.064;2023-06-22T09:31:39;27.50;99.90
1702;DHT22;848;48.354;10.064;2023-06-22T09:34:06;27.50;99.90
1702;DHT22;848;48.354;10.064;2023-06-22T09:36:33;27.60;99.90
1702;DHT22;848;48.354;10.064;2023-06-22T09:39:00;27.50;99.90
1702;DHT22;848;48.354;10.064;2023-06-22T09:41:32;27.50;99.90
1702;DHT22;848;48.354;10.064;2023-06-22T09:43:59;27.40;99.90
1702;DHT22;848;48.354;10.064;2023-06-22T09:46:26;27.60;99.90
1702;DHT22;848;48.354;10.064;2023-06-22T09:48:54;27.60;99.90
1702;DHT22;848;48.354;10.064;2023-06-22T09:51:21;27.60;99.90
1702;DHT22;848;48.354;10.064;2023-06-22T09:53:49;27.60;99.90
1702;DHT22;848;48.354;10.064;2023-06-22T09:56:16;27.60;99.90
1702;DHT22;848;48.354;10.064;2023-06-22T09:58:45;27.50;99.90
1702;DHT22;848;48.354;10.064;2023-06-22T10:01:13;27.40;99.90
1702;DHT22;848;48.354;10.064;2023-06-22T10:03:41;27.30;99.90
1702;DHT22;848;48.354;10.064;2023-06-22T10:06:08;27.20;99.90
1702;DHT22;848;48.354;10.064;2023-06-22T10:08:35;27.20;99.90
1702;DHT22;848;48.354;10.064;2023-06-22T10:13:29;27.20;99.90
1702;DHT22;848;48.354;10.064;2023-06-22T10:15:57;27.20;99.90
1702;DHT22;848;48.354;10.064;2023-06-22T10:18:24;27.20;99.90
1702;DHT22;848;48.354;10.064;2023-06-22T10:20:52;27.00;99.90
1702;DHT22;848;48.354;10.064;2023-06-22T10:23:20;27.00;99.90
1702;DHT22;848;48.354;10.064;2023-06-22T10:25:47;26.80;99.90
1702;DHT22;848;48.354;10.064;2023-06-22T10:28:14;26.80;99.90
1702;DHT22;848;48.354;10.064;2023-06-22T10:30:41;26.80;99.90
1702;DHT22;848;48.354;10.064;2023-06-22T10:33:10;26.90;99.90
1702;DHT22;848;48.354;10.064;2023-06-22T10:35:38;26.90;99.90
1702;DHT22;848;48.354;10.064;2023-06-22T10:38:05;26.90;99.90
1702;DHT22;848;48.354;10.064;2023-06-22T10:40:33;26.80;99.90
1702;DHT22;848;48.354;10.064;2023-06-22T10:43:00;26.90;99.90
1702;DHT22;848;48.354;10.064;2023-06-22T10:45:27;26.90;99.90
1702;DHT22;848;48.354;10.064;2023-06-22T10:47:54;27.00;99.90
1702;DHT22;848;48.354;10.064;2023-06-22T10:50:22;27.00;99.90
1702;DHT22;848;48.354;10.064;2023-06-22T10:52:49;26.90;99.90
1702;DHT22;848;48.354;10.064;2023-06-22T10:55:16;27.00;99.90
1702;DHT22;848;48.354;10.064;2023-06-22T10:57:43;27.00;99.90
1702;DHT22;848;48.354;10.064;2023-06-22T11:00:13;27.00;99.90
1702;DHT22;848;48.354;10.064;2023-06-22T11:02:40;27.10;99.90
1702;DHT22;848;48.354;10.064;2023-06-22T11:05:08;27.10;99.90
1702;DHT22;848;48.354;10.064;2023-06-22T11:07:37;27.20;99.90
1702;DHT22;848;48.354;10.064;2023-06-22T11:10:05;27.30;99.90
1702;DHT22;848;48.354;10.064;2023-06-22T11:12:32;27.40;99.90
1702;DHT22;848;48.354;10.064;2023-06-22T11:14:59;27.50;99.90
1702;DHT22;848;48.354;10.064;2023-06-22T11:17:25;27.60;99.90
1702;DHT22;848;48.354;10.064;2023-06-22T11:19:52;27.60;99.90
1702;DHT22;848;48.354;10.064;2023-06-22T11:22:19;27.70;99.90
1702;DHT22;848;48.354;10.064;2023-06-22T11:24:47;27.80;99.90
1702;DHT22;848;48.354;10.064;2023-06-22T11:27:15;27.90;99.90
1702;DHT22;848;48.354;10.064;2023-06-22T11:29:42;28.00;99.90
1702;DHT22;848;48.354;10.064;2023-06-22T11:32:09;28.00;99.90
1702;DHT22;848;48.354;10.064;2023-06-22T11:34:35;28.00;99.90
1702;DHT22;848;48.354;10.064;2023-06-22T11:37:02;28.00;99.90
1702;DHT22;848;48.354;10.064;2023-06-22T11:39:29;28.00;99.90
1702;DHT22;848;48.354;10.064;2023-06-22T11:41:58;28.10;99.90
1702;DHT22;848;48.354;10.064;2023-06-22T11:44:24;28.10;99.90
1702;DHT22;848;48.354;10.064;2023-06-22T11:46:51;28.10;99.90
1702;DHT22;848;48.354;10.064;2023-06-22T11:49:18;28.20;99.90
1702;DHT22;848;48.354;10.064;2023-06-22T11:51:45;28.30;99.90
1702;DHT22;848;48.354;10.064;2023-06-22T11:54:12;28.30;99.90
1702;DHT22;848;48.354;10.064;2023-06-22T11:56:39;28.30;99.90
1702;DHT22;848;48.354;10.064;2023-06-22T11:59:07;28.30;99.90
1702;DHT22;848;48.354;10.064;2023-06-22T12:01:34;28.20;99.90
1702;DHT22;848;48.354;10.064;2023-06-22T12:04:01;28.30;99.90
1702;DHT22;848;48.354;10.064;2023-06-22T12:06:31;28.30;99.90
1702;DHT22;848;48.354;10.064;2023-06-22T12:08:57;28.40;99.90
1702;DHT22;848;48.354;10.064;2023-06-22T12:11:24;28.50;99.90
1702;DHT22;848;48.354;10.064;2023-06-22T12:13:51;28.60;99.90
1702;DHT22;848;48.354;10.064;2023-06-22T12:16:20;28.60;99.90
1702;DHT22;848;48.354;10.064;2023-06-22T12:18:47;28.70;99.90
1702;DHT22;848;48.354;10.064;2023-06-22T12:21:15;28.80;99.90
1702;DHT22;848;48.354;10.064;2023-06-22T12:23:41;28.80;99.90
1702;DHT22;848;48.354;10.064;2023-06-22T12:26:08;28.80;99.90
1702;DHT22;848;48.354;10.064;2023-06-22T12:28:35;28.90;99.90
1702;DHT22;848;48.354;10.064;2023-06-22T12:31:02;28.90;99.90
1702;DHT22;848;48.354;10.064;2023-06-22T12:33:30;28.80;99.90
1702;DHT22;848;48.354;10.064;2023-06-22T12:35:57;28.80;99.90
1702;DHT22;848;48.354;10.064;2023-06-22T12:38:24;28.80;99.90
1702;DHT22;848;48.354;10.064;2023-06-22T12:40:51;28.60;99.90
1702;DHT22;848;48.354;10.064;2023-06-22T12:43:18;28.60;99.90
1702;DHT22;848;48.354;10.064;2023-06-22T12:45:45;28.60;99.90
1702;DHT22;848;48.354;10.064;2023-06-22T12:48:12;28.60;99.90
1702;DHT22;848;48.354;10.064;2023-06-22T12:50:40;28.70;99.90
1702;DHT22;848;48.354;10.064;2023-06-22T12:53:07;28.60;99.90
1702;DHT22;848;48.354;10.064;2023-06-22T12:55:34;28.60;99.90
1702;DHT22;848;48.354;10.064;2023-06-22T12:58:01;28.60;99.90
1702;DHT22;848;48.354;10.064;2023-06-22T13:00:28;28.70;99.90
1702;DHT22;848;48.354;10.064;2023-06-22T13:02:55;28.80;99.90
1702;DHT22;848;48.354;10.064;2023-06-22T13:05:22;28.70;99.90
1702;DHT22;848;48.354;10.064;2023-06-22T13:07:50;28.70;99.90
1702;DHT22;848;48.354;10.064;2023-06-22T13:10:17;28.60;99.90
1702;DHT22;848;48.354;10.064;2023-06-22T13:12:44;28.70;99.90
1702;DHT22;848;48.354;10.064;2023-06-22T13:15:11;28.70;99.90
1702;DHT22;848;48.354;10.064;2023-06-22T13:17:37;28.70;99.90
1702;DHT22;848;48.354;10.064;2023-06-22T13:20:05;28.70;99.90
1702;DHT22;848;48.354;10.064;2023-06-22T13:22:34;28.70;99.90
1702;DHT22;848;48.354;10.064;2023-06-22T13:25:07;28.70;99.90
1702;DHT22;848;48.354;10.064;2023-06-22T13:27:37;28.80;99.90
1702;DHT22;848;48.354;10.064;2023-06-22T13:30:05;28.80;99.90
1702;DHT22;848;48.354;10.064;2023-06-22T13:32:32;28.80;99.90
1702;DHT22;848;48.354;10.064;2023-06-22T13:34:59;28.70;99.90
1702;DHT22;848;48.354;10.064;2023-06-22T13:37:26;28.60;99.90
1702;DHT22;848;48.354;10.064;2023-06-22T13:39:53;28.60;99.90
1702;DHT22;848;48.354;10.064;2023-06-22T13:42:23;28.60;99.90
1702;DHT22;848;48.354;10.064;2023-06-22T13:44:50;28.60;99.90
1702;DHT22;848;48.354;10.064;2023-06-22T13:47:17;28.60;99.90
1702;DHT22;848;48.354;10.064;2023-06-22T13:49:44;28.60;99.90
1702;DHT22;848;48.354;10.064;2023-06-22T13:52:11;28.70;99.90
1702;DHT22;848;48.354;10.064;2023-06-22T13:54:38;28.50;99.90
1702;DHT22;848;48.354;10.064;2023-06-22T13:57:06;28.50;99.90
1702;DHT22;848;48.354;10.064;2023-06-22T13:59:34;28.40;99.90
1702;DHT22;848;48.354;10.064;2023-06-22T14:02:01;28.40;99.90
1702;DHT22;848;48.354;10.064;2023-06-22T14:04:28;28.30;99.90
1702;DHT22;848;48.354;10.064;2023-06-22T14:06:55;28.30;99.90
1702;DHT22;848;48.354;10.064;2023-06-22T14:09:22;28.20;99.90
1702;DHT22;848;48.354;10.064;2023-06-22T14:11:49;28.20;99.90
1702;DHT22;848;48.354;10.064;2023-06-22T14:14:16;28.10;99.90
1702;DHT22;848;48.354;10.064;2023-06-22T14:16:44;28.20;99.90
1702;DHT22;848;48.354;10.064;2023-06-22T14:19:11;28.20;99.90
1702;DHT22;848;48.354;10.064;2023-06-22T14:21:38;28.20;99.90
1702;DHT22;848;48.354;10.064;2023-06-22T14:24:05;28.30;99.90
1702;DHT22;848;48.354;10.064;2023-06-22T14:26:32;28.30;99.90
1702;DHT22;848;48.354;10.064;2023-06-22T14:28:59;28.40;99.90
1702;DHT22;848;48.354;10.064;2023-06-22T14:31:26;28.40;99.90
1702;DHT22;848;48.354;10.064;2023-06-22T14:33:54;28.40;99.90
1702;DHT22;848;48.354;10.064;2023-06-22T14:36:21;28.40;99.90
1702;DHT22;848;48.354;10.064;2023-06-22T14:38:48;28.40;99.90
1702;DHT22;848;48.354;10.064;2023-06-22T14:41:15;28.40;99.90
1702;DHT22;848;48.354;10.064;2023-06-22T14:43:46;28.30;99.90
1702;DHT22;848;48.354;10.064;2023-06-22T14:46:14;28.20;99.90
1702;DHT22;848;48.354;10.064;2023-06-22T14:48:41;28.20;99.90
1702;DHT22;848;48.354;10.064;2023-06-22T14:51:09;28.10;99.90
1702;DHT22;848;48.354;10.064;2023-06-22T14:53:36;28.10;99.90
1702;DHT22;848;48.354;10.064;2023-06-22T14:56:04;28.00;99.90
1702;DHT22;848;48.354;10.064;2023-06-22T14:58:32;28.00;99.90
1702;DHT22;848;48.354;10.064;2023-06-22T15:00:59;28.00;99.90
1702;DHT22;848;48.354;10.064;2023-06-22T15:03:26;28.00;99.90
1702;DHT22;848;48.354;10.064;2023-06-22T15:05:56;28.00;99.90
1702;DHT22;848;48.354;10.064;2023-06-22T15:08:24;28.00;99.90
1702;DHT22;848;48.354;10.064;2023-06-22T15:10:52;28.00;99.90
1702;DHT22;848;48.354;10.064;2023-06-22T15:13:19;28.30;99.90
1702;DHT22;848;48.354;10.064;2023-06-22T15:15:47;28.50;99.90
1702;DHT22;848;48.354;10.064;2023-06-22T15:18:14;28.50;99.90
1702;DHT22;848;48.354;10.064;2023-06-22T15:20:41;28.40;99.90
1702;DHT22;848;48.354;10.064;2023-06-22T15:23:10;28.30;99.90
1702;DHT22;848;48.354;10.064;2023-06-22T15:25:38;28.20;99.90
1702;DHT22;848;48.354;10.064;2023-06-22T15:28:05;28.20;99.90
1702;DHT22;848;48.354;10.064;2023-06-22T15:30:32;28.40;99.90
1702;DHT22;848;48.354;10.064;2023-06-22T15:33:00;28.50;99.90
1702;DHT22;848;48.354;10.064;2023-06-22T15:35:27;28.60;99.90
1702;DHT22;848;48.354;10.064;2023-06-22T15:37:54;28.70;99.90
1702;DHT22;848;48.354;10.064;2023-06-22T15:40:21;28.70;99.90
1702;DHT22;848;48.354;10.064;2023-06-22T15:42:51;28.80;99.90
1702;DHT22;848;48.354;10.064;2023-06-22T15:45:18;28.70;99.90
1702;DHT22;848;48.354;10.064;2023-06-22T15:47:45;28.70;99.90
1702;DHT22;848;48.354;10.064;2023-06-22T15:50:11;28.60;99.90
1702;DHT22;848;48.354;10.064;2023-06-22T15:52:39;28.50;99.90
1702;DHT22;848;48.354;10.064;2023-06-22T15:55:07;28.40;99.90
1702;DHT22;848;48.354;10.064;2023-06-22T15:57:35;28.30;99.90
1702;DHT22;848;48.354;10.064;2023-06-22T16:00:05;28.20;99.90
1702;DHT22;848;48.354;10.064;2023-06-22T16:02:33;28.10;99.90
1702;DHT22;848;48.354;10.064;2023-06-22T16:05:00;28.00;99.90
1702;DHT22;848;48.354;10.064;2023-06-22T16:07:28;27.90;99.90
1702;DHT22;848;48.354;10.064;2023-06-22T16:09:55;27.90;99.90